Time;durP1;ratioP1;P1;durP2;ratioP2;P2;SDS_P1;SDS_P2;PMS_P1;PMS_P2;Temp;Humidity;BMP_temperature;BMP_pressure;BME280_temperature;BME280_humidity;BME280_pressure;Samples;Min_cycle;Max_cycle;Signal;HPM_P1;HPM_P2
2023/04/06 00:00:34;;;;;;;13.93;7.20;;;3.20;1.00;;;;;;5113864;28;20580;-79
2023/04/06 00:03:01;;;;;;;16.17;7.50;;;3.20;1.00;;;;;;5101306;28;20960;-80
2023/04/06 00:05:30;;;;;;;11.23;7.40;;;3.10;1.00;;;;;;5109396;28;20474;-80
2023/04/06 00:07:58;;;;;;;11.27;7.47;;;3.10;1.00;;;;;;5110211;28;20473;-81
2023/04/06 00:10:26;;;;;;;13.20;6.87;;;3.10;1.00;;;;;;5114152;28;20469;-79
2023/04/06 00:12:54;;;;;;;10.90;6.93;;;3.10;1.00;;;;;;5095069;28;20429;-80
2023/04/06 00:15:21;;;;;;;9.97;6.67;;;3.10;1.00;;;;;;5096304;28;20481;-80
2023/04/06 00:17:47;;;;;;;15.80;8.40;;;3.00;1.00;;;;;;5109941;28;20475;-79
2023/04/06 00:20:14;;;;;;;18.13;8.63;;;2.90;1.00;;;;;;5116253;28;20871;-80
2023/04/06 00:22:42;;;;;;;13.70;7.77;;;2.90;1.00;;;;;;5098649;28;20938;-79
2023/04/06 00:25:10;;;;;;;11.67;7.40;;;2.90;1.00;;;;;;5096435;28;20446;-79
2023/04/06 00:27:39;;;;;;;11.43;6.23;;;3.00;1.00;;;;;;5107830;28;20507;-80
2023/04/06 00:30:07;;;;;;;11.27;7.33;;;2.90;1.00;;;;;;5111714;28;20496;-79
2023/04/06 00:32:34;;;;;;;11.40;7.17;;;2.90;1.00;;;;;;5120724;28;20450;-79
2023/04/06 00:35:03;;;;;;;10.80;6.90;;;2.90;1.00;;;;;;5114387;28;20482;-79
2023/04/06 00:37:30;;;;;;;12.70;6.73;;;2.90;1.00;;;;;;5108517;28;20770;-81
2023/04/06 00:39:56;;;;;;;16.33;7.40;;;2.90;1.00;;;;;;5100227;28;20421;-82
2023/04/06 00:42:26;;;;;;;14.10;7.80;;;2.80;1.00;;;;;;5109193;28;20446;-81
2023/04/06 00:44:55;;;;;;;11.07;7.03;;;2.80;1.00;;;;;;5104701;28;20420;-82
2023/04/06 00:47:22;;;;;;;11.47;6.97;;;2.80;1.00;;;;;;5105519;28;20453;-81
2023/04/06 00:49:50;;;;;;;12.33;7.20;;;2.80;1.00;;;;;;5103063;28;20472;-82
2023/04/06 00:52:17;;;;;;;11.87;7.23;;;2.80;1.00;;;;;;5103284;28;21026;-81
2023/04/06 00:54:44;;;;;;;12.23;6.57;;;2.70;21.40;;;;;;5108857;28;20498;-82
2023/04/06 00:57:12;;;;;;;14.43;7.53;;;2.70;90.00;;;;;;5116885;28;20464;-80
2023/04/06 00:59:39;;;;;;;12.50;7.10;;;2.70;99.90;;;;;;5105237;28;20479;-81
2023/04/06 01:02:08;;;;;;;12.10;6.90;;;2.70;99.90;;;;;;5120798;28;20961;-81
2023/04/06 01:04:35;;;;;;;11.30;6.90;;;2.70;58.70;;;;;;5120302;28;20447;-80
2023/04/06 01:07:02;;;;;;;11.60;6.83;;;2.70;93.30;;;;;;5109843;28;20451;-81
2023/04/06 01:09:30;;;;;;;13.17;8.17;;;2.60;99.90;;;;;;5121463;28;20509;-81
2023/04/06 01:11:57;;;;;;;13.90;8.63;;;2.60;43.80;;;;;;5106249;28;20425;-80
2023/04/06 01:14:24;;;;;;;13.43;7.90;;;2.60;18.80;;;;;;5119702;28;20988;-80
2023/04/06 01:16:52;;;;;;;13.60;7.23;;;2.60;20.10;;;;;;5120533;28;20428;-80
2023/04/06 01:19:21;;;;;;;12.80;7.40;;;2.60;48.40;;;;;;5123249;27;20515;-80
2023/04/06 01:21:49;;;;;;;9.93;7.03;;;2.50;27.00;;;;;;5114502;28;20450;-80
2023/04/06 01:24:17;;;;;;;11.23;6.83;;;2.50;82.00;;;;;;5104794;28;20423;-82
2023/04/06 01:26:44;;;;;;;11.73;7.20;;;2.50;99.90;;;;;;5107236;28;20423;-80
2023/04/06 01:29:12;;;;;;;11.43;7.13;;;2.50;99.90;;;;;;5121926;28;20507;-79
2023/04/06 01:31:39;;;;;;;14.30;7.07;;;2.50;99.90;;;;;;5119520;28;20428;-82
2023/04/06 01:34:06;;;;;;;13.57;5.97;;;2.50;99.90;;;;;;5120074;27;20477;-80
2023/04/06 01:36:33;;;;;;;11.63;6.80;;;2.50;99.90;;;;;;5103211;28;20618;-82
2023/04/06 01:39:00;;;;;;;13.10;7.77;;;2.50;99.90;;;;;;5104120;28;20447;-80
2023/04/06 01:41:28;;;;;;;12.97;6.20;;;2.50;99.90;;;;;;5119146;28;20564;-81
2023/04/06 01:43:55;;;;;;;9.80;6.40;;;2.50;99.90;;;;;;5118080;28;20460;-80
2023/04/06 01:46:22;;;;;;;12.10;7.37;;;2.50;99.90;;;;;;5103735;28;20442;-80
2023/04/06 01:48:50;;;;;;;12.80;6.30;;;2.50;95.60;;;;;;5116462;28;20475;-80
2023/04/06 01:51:16;;;;;;;10.77;6.90;;;2.50;92.90;;;;;;5119437;28;20964;-80
2023/04/06 01:53:43;;;;;;;11.70;6.47;;;2.50;99.90;;;;;;5110635;28;20470;-80
2023/04/06 01:56:10;;;;;;;9.07;6.47;;;2.50;99.90;;;;;;5113556;28;20501;-79
2023/04/06 01:58:39;;;;;;;8.67;6.13;;;2.50;99.90;;;;;;5111188;28;20505;-81
2023/04/06 02:01:06;;;;;;;8.63;5.80;;;2.40;99.90;;;;;;5098814;28;20424;-83
2023/04/06 02:03:33;;;;;;;8.17;6.53;;;2.40;99.90;;;;;;5103203;28;20463;-81
2023/04/06 02:06:00;;;;;;;11.60;6.27;;;2.50;75.60;;;;;;5099886;28;20429;-80
2023/04/06 02:08:26;;;;;;;9.27;6.30;;;2.40;99.90;;;;;;5108394;28;20444;-81
2023/04/06 02:10:53;;;;;;;11.93;6.80;;;2.40;95.50;;;;;;5098632;28;20454;-81
2023/04/06 02:13:20;;;;;;;10.30;6.70;;;2.40;99.90;;;;;;5114474;28;20434;-80
2023/04/06 02:15:48;;;;;;;12.70;6.30;;;2.40;80.60;;;;;;5119944;28;20500;-81
2023/04/06 02:18:17;;;;;;;11.77;7.97;;;2.40;46.70;;;;;;5109314;28;20500;-80
2023/04/06 02:20:44;;;;;;;10.07;6.70;;;2.40;99.90;;;;;;5105959;28;21014;-80
2023/04/06 02:23:11;;;;;;;9.37;6.47;;;2.40;99.90;;;;;;5101613;28;20453;-81
2023/04/06 02:25:38;;;;;;;9.13;6.37;;;2.40;98.10;;;;;;5115221;28;20806;-80
2023/04/06 02:28:05;;;;;;;12.03;6.27;;;2.40;92.30;;;;;;5102728;28;20445;-80
2023/04/06 02:30:32;;;;;;;9.53;6.47;;;2.30;92.10;;;;;;5098295;28;20474;-80
2023/04/06 02:33:01;;;;;;;11.50;7.23;;;2.30;99.90;;;;;;5112687;28;20430;-79
2023/04/06 02:35:29;;;;;;;9.70;6.10;;;2.20;97.20;;;;;;5109937;28;20481;-81
2023/04/06 02:37:56;;;;;;;11.20;6.87;;;2.20;99.90;;;;;;5116305;28;20452;-80
2023/04/06 02:40:23;;;;;;;10.27;6.57;;;2.20;99.90;;;;;;5116703;28;20454;-79
2023/04/06 02:42:50;;;;;;;13.07;6.67;;;2.20;99.90;;;;;;5101584;27;20478;-82
2023/04/06 02:45:17;;;;;;;9.73;6.90;;;2.20;99.90;;;;;;5111024;28;20480;-80
2023/04/06 02:47:44;;;;;;;10.77;6.80;;;2.10;99.90;;;;;;5116755;28;20483;-80
2023/04/06 02:50:12;;;;;;;11.10;7.27;;;2.10;99.90;;;;;;5118206;27;20435;-79
2023/04/06 02:52:39;;;;;;;7.27;5.70;;;2.10;99.90;;;;;;5113466;28;20991;-80
2023/04/06 02:55:07;;;;;;;10.37;6.80;;;2.10;99.90;;;;;;5102229;28;20461;-81
2023/04/06 02:57:34;;;;;;;9.17;6.60;;;2.10;99.90;;;;;;5115520;28;20469;-80
2023/04/06 03:00:01;;;;;;;10.17;6.90;;;2.10;99.90;;;;;;5116753;28;20847;-81
2023/04/06 03:02:28;;;;;;;10.87;6.60;;;2.10;99.90;;;;;;5109086;28;20456;-80
2023/04/06 03:04:55;;;;;;;9.33;6.87;;;2.00;99.90;;;;;;5111141;28;20475;-80
2023/04/06 03:07:23;;;;;;;11.87;5.83;;;2.00;99.90;;;;;;5102690;28;20488;-80
2023/04/06 03:09:50;;;;;;;9.77;6.37;;;2.00;1.00;;;;;;5096890;28;20474;-80
2023/04/06 03:12:17;;;;;;;10.47;6.43;;;2.00;1.00;;;;;;5099211;28;20453;-81
2023/04/06 03:14:44;;;;;;;8.40;5.50;;;2.00;1.00;;;;;;5115613;28;20481;-80
2023/04/06 03:17:11;;;;;;;10.30;6.80;;;1.90;1.00;;;;;;5115702;28;20544;-80
2023/04/06 03:19:38;;;;;;;13.90;7.83;;;2.00;1.00;;;;;;5102174;28;20474;-80
2023/04/06 03:22:05;;;;;;;11.23;7.00;;;1.90;99.90;;;;;;5114473;28;20481;-80
2023/04/06 03:24:33;;;;;;;11.43;6.17;;;1.90;1.00;;;;;;5097177;28;20515;-81
2023/04/06 03:27:00;;;;;;;9.27;6.03;;;1.90;1.00;;;;;;5101247;28;20459;-81
2023/04/06 03:29:27;;;;;;;9.73;5.83;;;1.90;1.00;;;;;;5116832;28;20436;-80
2023/04/06 03:31:54;;;;;;;13.93;7.67;;;1.90;1.00;;;;;;5113009;28;20460;-81
2023/04/06 03:34:21;;;;;;;10.33;6.67;;;1.80;1.00;;;;;;5102179;28;20449;-79
2023/04/06 03:36:48;;;;;;;9.67;7.33;;;1.80;1.00;;;;;;5107400;28;20516;-81
2023/04/06 03:39:15;;;;;;;9.33;6.77;;;1.80;1.00;;;;;;5098850;28;20497;-81
2023/04/06 03:41:44;;;;;;;11.30;7.30;;;1.80;1.00;;;;;;5094979;28;20503;-80
2023/04/06 03:44:11;;;;;;;10.47;6.83;;;1.80;47.30;;;;;;5097520;28;20433;-80
2023/04/06 03:46:38;;;;;;;10.20;6.70;;;1.80;1.00;;;;;;5096623;28;20455;-80
2023/04/06 03:49:04;;;;;;;9.57;6.60;;;1.80;1.00;;;;;;5095546;28;20899;-81
2023/04/06 03:51:31;;;;;;;8.60;6.30;;;1.80;1.00;;;;;;5094687;28;20496;-80
2023/04/06 03:53:58;;;;;;;14.80;7.07;;;1.80;1.00;;;;;;5114085;28;20462;-81
2023/04/06 03:56:26;;;;;;;11.13;6.83;;;1.80;1.00;;;;;;5111793;28;20818;-80
2023/04/06 03:58:54;;;;;;;9.70;6.80;;;1.70;1.00;;;;;;5095307;28;20487;-81
2023/04/06 04:01:21;;;;;;;11.43;5.00;;;1.70;1.00;;;;;;5102370;28;20480;-80
2023/04/06 04:03:48;;;;;;;11.90;7.07;;;1.70;1.00;;;;;;5098963;28;20485;-79
2023/04/06 04:06:15;;;;;;;10.87;7.00;;;1.70;37.70;;;;;;5102487;28;20529;-81
2023/04/06 04:08:41;;;;;;;10.33;6.60;;;1.70;99.90;;;;;;5095919;28;20445;-81
2023/04/06 04:11:08;;;;;;;9.95;6.80;;;1.70;99.90;;;;;;5095112;28;21031;-80
2023/04/06 04:13:35;;;;;;;10.87;6.87;;;1.70;99.90;;;;;;5102323;28;20200;-82
2023/04/06 04:16:04;;;;;;;8.93;7.17;;;1.60;99.90;;;;;;5117466;28;20519;-81
2023/04/06 04:18:31;;;;;;;11.60;6.97;;;1.60;98.10;;;;;;5096380;28;20542;-80
2023/04/06 04:20:57;;;;;;;10.83;6.70;;;1.70;99.90;;;;;;5098563;28;20888;-80
2023/04/06 04:23:24;;;;;;;11.77;8.17;;;1.60;99.90;;;;;;5098917;28;20489;-80
2023/04/06 04:25:52;;;;;;;10.00;6.90;;;1.60;99.90;;;;;;5099508;28;20424;-80
2023/04/06 04:28:18;;;;;;;12.10;7.07;;;1.60;99.90;;;;;;5098743;28;20861;-80
2023/04/06 04:30:46;;;;;;;9.20;6.37;;;1.60;99.90;;;;;;5103442;28;20482;-83
2023/04/06 04:33:15;;;;;;;7.80;5.80;;;1.70;99.90;;;;;;5099316;28;20488;-81
2023/04/06 04:35:42;;;;;;;9.43;7.63;;;1.60;99.90;;;;;;5098681;28;20475;-80
2023/04/06 04:38:09;;;;;;;9.07;7.00;;;1.60;71.00;;;;;;5107824;28;20519;-81
2023/04/06 04:40:36;;;;;;;8.60;7.37;;;1.60;94.00;;;;;;5097574;28;20503;-79
2023/04/06 04:43:02;;;;;;;8.40;6.37;;;1.60;1.00;;;;;;5113241;28;20428;-81
2023/04/06 04:45:29;;;;;;;9.53;6.17;;;1.60;1.00;;;;;;5097512;28;20456;-81
2023/04/06 04:47:56;;;;;;;12.50;7.27;;;1.60;1.00;;;;;;5111661;28;20480;-80
2023/04/06 04:50:25;;;;;;;8.77;6.67;;;1.60;1.00;;;;;;5116808;28;20503;-82
2023/04/06 04:52:51;;;;;;;11.47;6.90;;;1.60;75.80;;;;;;5096339;28;20580;-82
2023/04/06 04:55:18;;;;;;;9.00;6.70;;;1.60;99.90;;;;;;5098310;28;20480;-81
2023/04/06 04:57:45;;;;;;;12.10;8.57;;;1.60;97.60;;;;;;5116020;28;20576;-83
2023/04/06 05:00:13;;;;;;;9.07;6.90;;;1.60;99.90;;;;;;5115466;28;20452;-80
2023/04/06 05:02:40;;;;;;;11.13;6.70;;;1.70;99.90;;;;;;5114879;28;20420;-81
2023/04/06 05:05:08;;;;;;;11.73;6.47;;;1.60;99.90;;;;;;5117016;28;20467;-81
2023/04/06 05:07:36;;;;;;;10.57;6.23;;;1.70;58.10;;;;;;5108086;28;20468;-80
2023/04/06 05:10:03;;;;;;;10.77;7.10;;;1.70;1.00;;;;;;5096991;28;20548;-81
2023/04/06 05:12:30;;;;;;;8.60;6.00;;;1.70;1.00;;;;;;5107670;28;20459;-81
2023/04/06 05:14:57;;;;;;;12.10;6.90;;;1.70;1.00;;;;;;5101576;28;20491;-81
2023/04/06 05:17:25;;;;;;;10.13;6.87;;;1.70;1.00;;;;;;5111816;28;20528;-81
2023/04/06 05:19:52;;;;;;;12.07;6.60;;;1.70;1.00;;;;;;5097651;28;20536;-81
2023/04/06 05:22:19;;;;;;;10.53;7.37;;;1.70;1.00;;;;;;5095640;28;20507;-81
2023/04/06 05:24:48;;;;;;;11.20;6.40;;;1.70;1.00;;;;;;5096218;28;20459;-81
2023/04/06 05:27:14;;;;;;;10.45;6.93;;;1.80;1.00;;;;;;5095914;28;20492;-81
2023/04/06 05:29:41;;;;;;;11.00;7.50;;;1.80;35.90;;;;;;5097586;28;20652;-81
2023/04/06 05:32:08;;;;;;;10.60;6.53;;;1.90;72.10;;;;;;5095688;28;20470;-81
2023/04/06 05:34:35;;;;;;;13.17;7.30;;;1.90;1.00;;;;;;5096560;28;20871;-81
2023/04/06 05:37:02;;;;;;;7.73;5.83;;;2.00;62.60;;;;;;5096170;28;20509;-81
2023/04/06 05:39:29;;;;;;;13.90;7.13;;;2.00;1.00;;;;;;5100365;28;20567;-81
2023/04/06 05:41:58;;;;;;;8.10;5.70;;;2.10;1.00;;;;;;5116350;28;20449;-81
2023/04/06 05:44:25;;;;;;;10.30;7.63;;;2.10;1.00;;;;;;5097226;28;20486;-80
2023/04/06 05:46:52;;;;;;;11.07;6.67;;;2.20;1.00;;;;;;5114328;28;20495;-82
2023/04/06 05:49:18;;;;;;;10.00;6.83;;;2.30;99.90;;;;;;5107701;28;20467;-82
2023/04/06 05:51:47;;;;;;;9.80;7.50;;;2.40;99.90;;;;;;5111490;28;20978;-82
2023/04/06 05:54:14;;;;;;;9.70;6.17;;;2.40;99.90;;;;;;5117807;28;20452;-81
2023/04/06 05:56:41;;;;;;;11.30;7.13;;;2.50;1.00;;;;;;5113699;27;20448;-80
2023/04/06 05:59:09;;;;;;;13.47;6.83;;;2.60;99.90;;;;;;5116050;28;20903;-82
2023/04/06 06:01:36;;;;;;;10.67;6.67;;;2.80;99.90;;;;;;5113607;28;20968;-81
2023/04/06 06:04:03;;;;;;;11.57;6.13;;;2.90;99.90;;;;;;5109474;28;20481;-80
2023/04/06 06:06:30;;;;;;;11.10;6.00;;;3.00;99.90;;;;;;5110765;28;20898;-83
2023/04/06 06:08:58;;;;;;;8.77;6.60;;;3.10;99.90;;;;;;5096311;28;20523;-81
2023/04/06 06:11:26;;;;;;;11.17;7.10;;;3.20;69.40;;;;;;5105399;28;20559;-82
2023/04/06 06:13:53;;;;;;;12.50;7.27;;;3.30;23.60;;;;;;5110854;28;20432;-82
2023/04/06 06:16:21;;;;;;;11.27;7.47;;;3.40;1.00;;;;;;5112198;28;20495;-81
2023/04/06 06:18:48;;;;;;;15.97;5.90;;;3.50;1.00;;;;;;5108750;28;20910;-82
2023/04/06 06:21:16;;;;;;;10.83;6.57;;;3.60;1.00;;;;;;5111855;28;20463;-82
2023/04/06 06:23:44;;;;;;;13.50;7.47;;;3.70;1.00;;;;;;5115030;28;20424;-83
2023/04/06 06:26:11;;;;;;;9.20;6.30;;;3.80;1.00;;;;;;5115753;28;20487;-81
2023/04/06 06:28:38;;;;;;;11.80;5.80;;;3.90;1.00;;;;;;5107469;28;20508;-82
2023/04/06 06:31:05;;;;;;;8.80;5.47;;;4.10;1.00;;;;;;5116077;28;20447;-82
2023/04/06 06:33:33;;;;;;;9.50;6.10;;;4.20;1.00;;;;;;5111198;28;20478;-82
2023/04/06 06:36:00;;;;;;;8.73;5.40;;;4.30;1.00;;;;;;5114842;28;20446;-82
2023/04/06 06:38:27;;;;;;;6.83;4.63;;;4.40;1.00;;;;;;5114154;27;20433;-85
2023/04/06 06:40:54;;;;;;;12.43;6.03;;;4.60;99.90;;;;;;5111090;28;20960;-85
2023/04/06 06:43:21;;;;;;;14.97;5.80;;;4.90;99.90;;;;;;5111090;28;20450;-84
2023/04/06 06:45:48;;;;;;;9.23;5.77;;;4.90;99.90;;;;;;5113959;28;20485;-84
2023/04/06 06:48:15;;;;;;;9.13;5.40;;;5.00;99.90;;;;;;5111856;28;20446;-84
2023/04/06 06:50:43;;;;;;;9.03;5.60;;;5.10;99.90;;;;;;5107449;28;20482;-86
2023/04/06 06:53:11;;;;;;;8.03;4.90;;;5.20;99.90;;;;;;5114192;28;20493;-83
2023/04/06 06:55:38;;;;;;;9.80;5.33;;;5.40;99.90;;;;;;5112504;28;20994;-84
2023/04/06 06:58:05;;;;;;;10.27;5.70;;;5.40;99.90;;;;;;5109903;28;20515;-84
2023/04/06 07:00:32;;;;;;;7.80;4.77;;;5.60;99.90;;;;;;5112857;28;20541;-85
2023/04/06 07:02:59;;;;;;;9.37;5.30;;;5.70;99.90;;;;;;5109659;28;20461;-85
2023/04/06 07:05:26;;;;;;;13.47;5.77;;;5.90;99.90;;;;;;5111824;28;20475;-84
2023/04/06 07:07:55;;;;;;;7.87;4.37;;;6.00;99.90;;;;;;5113000;28;20467;-83
2023/04/06 07:10:22;;;;;;;8.63;5.00;;;6.10;99.90;;;;;;5115525;28;20475;-85
2023/04/06 07:12:49;;;;;;;7.53;5.00;;;6.20;99.90;;;;;;5115514;28;20452;-85
2023/04/06 07:15:17;;;;;;;8.97;5.40;;;6.30;99.90;;;;;;5113880;28;20455;-84
2023/04/06 07:17:44;;;;;;;6.80;4.50;;;6.40;99.90;;;;;;5108793;28;20488;-84
2023/04/06 07:20:12;;;;;;;6.93;4.40;;;6.60;99.90;;;;;;5105155;28;20434;-86
2023/04/06 07:22:39;;;;;;;11.00;4.83;;;6.80;99.90;;;;;;5108494;28;20451;-84
2023/04/06 07:25:08;;;;;;;12.13;5.13;;;7.00;99.90;;;;;;5115047;28;20538;-87
2023/04/06 07:27:36;;;;;;;8.77;5.50;;;7.10;99.90;;;;;;5113746;28;20440;-88
2023/04/06 07:30:03;;;;;;;7.93;6.40;;;7.40;99.90;;;;;;5109411;28;20594;-85
2023/04/06 07:32:30;;;;;;;8.40;5.33;;;7.60;99.90;;;;;;5109487;28;20480;-83
2023/04/06 07:34:57;;;;;;;8.97;5.80;;;7.70;99.90;;;;;;5116188;28;20456;-84
2023/04/06 07:37:26;;;;;;;8.07;5.33;;;7.80;99.90;;;;;;5117489;28;20852;-85
2023/04/06 07:39:53;;;;;;;9.43;5.30;;;8.00;99.90;;;;;;5129515;28;20449;-88
2023/04/06 07:42:21;;;;;;;9.70;6.63;;;8.10;99.90;;;;;;5129002;28;20478;-90
2023/04/06 07:44:49;;;;;;;7.80;5.27;;;8.40;99.90;;;;;;5131239;28;20463;-87
2023/04/06 07:47:16;;;;;;;9.13;5.00;;;8.70;99.90;;;;;;5129278;28;20443;-87
2023/04/06 07:49:43;;;;;;;9.97;6.30;;;8.90;99.90;;;;;;5131284;28;20474;-85
2023/04/06 07:52:10;;;;;;;7.73;5.10;;;9.20;99.90;;;;;;5129463;28;20454;-86
2023/04/06 07:54:37;;;;;;;12.40;6.40;;;9.40;99.90;;;;;;5133508;28;20510;-87
2023/04/06 07:57:04;;;;;;;9.10;7.17;;;9.60;99.90;;;;;;5136148;28;20464;-87
2023/04/06 07:59:32;;;;;;;10.40;5.90;;;9.70;99.90;;;;;;5135486;28;20479;-83
2023/04/06 08:01:59;;;;;;;8.03;5.53;;;9.80;99.90;;;;;;5117354;28;20427;-85
2023/04/06 08:04:26;;;;;;;10.17;6.60;;;9.80;99.90;;;;;;5115876;28;20442;-87
2023/04/06 08:06:53;;;;;;;7.90;5.00;;;9.70;99.90;;;;;;5135852;28;20419;-85
2023/04/06 08:09:20;;;;;;;11.97;5.77;;;9.90;99.90;;;;;;5135492;28;20444;-86
2023/04/06 08:11:48;;;;;;;9.53;5.33;;;9.90;99.90;;;;;;5122619;28;20482;-85
2023/04/06 08:14:15;;;;;;;9.60;6.10;;;10.10;99.90;;;;;;5114545;28;20874;-88
2023/04/06 08:16:44;;;;;;;13.30;6.27;;;10.20;99.90;;;;;;5135729;28;20518;-87
2023/04/06 08:19:11;;;;;;;8.47;5.67;;;10.70;99.90;;;;;;5129619;28;20473;-87
2023/04/06 08:21:38;;;;;;;10.17;7.10;;;11.10;99.90;;;;;;5115835;28;20463;-87
2023/04/06 08:24:05;;;;;;;8.77;5.93;;;11.80;99.90;;;;;;5121571;28;20462;-87
2023/04/06 08:26:32;;;;;;;10.90;6.07;;;12.70;99.90;;;;;;5114438;28;20442;-88
2023/04/06 08:28:59;;;;;;;9.50;6.30;;;13.60;99.90;;;;;;5105349;28;20490;-87
2023/04/06 08:31:26;;;;;;;11.03;5.97;;;15.10;99.90;;;;;;5108285;28;20447;-86
2023/04/06 08:33:54;;;;;;;12.50;6.60;;;16.00;99.90;;;;;;5098248;28;20963;-86
2023/04/06 08:36:22;;;;;;;9.60;6.47;;;17.20;99.90;;;;;;5104016;28;20457;-88
2023/04/06 08:38:50;;;;;;;9.80;6.17;;;18.10;99.90;;;;;;5116562;28;20480;-86
2023/04/06 08:41:18;;;;;;;8.87;6.90;;;18.10;99.90;;;;;;5114144;28;20454;-87
2023/04/06 08:43:47;;;;;;;8.60;5.93;;;19.90;99.90;;;;;;5118171;28;20460;-87
2023/04/06 08:46:15;;;;;;;9.60;7.10;;;20.20;99.90;;;;;;5118604;28;20525;-86
2023/04/06 08:48:43;;;;;;;8.53;6.77;;;20.80;99.90;;;;;;5111878;28;20568;-85
2023/04/06 08:51:12;;;;;;;8.60;7.17;;;21.90;99.90;;;;;;5110335;28;20810;-86
2023/04/06 08:53:40;;;;;;;9.10;7.30;;;20.90;99.90;;;;;;5102698;28;20467;-87
2023/04/06 08:56:08;;;;;;;8.77;7.20;;;20.10;99.90;;;;;;5105025;28;20444;-87
2023/04/06 08:58:37;;;;;;;12.10;8.57;;;18.80;99.90;;;;;;5117732;28;20513;-85
2023/04/06 09:01:07;;;;;;;10.63;7.73;;;17.60;99.90;;;;;;5110243;28;20450;-88
2023/04/06 09:03:37;;;;;;;12.97;9.20;;;18.30;99.90;;;;;;5120992;28;20452;-88
2023/04/06 09:06:05;;;;;;;13.33;8.30;;;18.20;99.90;;;;;;5111299;28;20538;-87
2023/04/06 09:08:34;;;;;;;10.27;8.30;;;17.40;99.90;;;;;;5110424;28;20493;-86
2023/04/06 09:11:02;;;;;;;11.57;8.40;;;17.70;99.90;;;;;;5108193;28;20449;-86
2023/04/06 09:13:29;;;;;;;9.40;7.43;;;17.80;99.90;;;;;;5116168;28;20454;-87
2023/04/06 09:16:03;;;;;;;10.13;7.80;;;17.20;99.90;;;;;;5120280;28;20792;-87
2023/04/06 09:18:31;;;;;;;13.77;7.87;;;17.60;99.90;;;;;;5115477;28;20484;-85
2023/04/06 09:20:59;;;;;;;10.90;8.03;;;17.90;99.90;;;;;;5121513;27;20874;-86
2023/04/06 09:23:26;;;;;;;12.23;8.20;;;17.50;99.90;;;;;;5118489;28;20561;-86
2023/04/06 09:26:08;;;;;;;10.57;8.27;;;17.50;99.90;;;;;;5119714;28;20448;-86
2023/04/06 09:28:48;;;;;;;10.30;8.13;;;17.60;99.90;;;;;;5107418;28;20472;-86
2023/04/06 09:31:17;;;;;;;13.83;8.40;;;17.50;99.90;;;;;;5116379;28;20481;-87
2023/04/06 09:33:46;;;;;;;11.07;7.70;;;17.00;99.90;;;;;;5114837;28;20493;-86
2023/04/06 09:36:15;;;;;;;14.80;8.40;;;16.70;99.90;;;;;;5105485;28;21025;-86
2023/04/06 09:38:54;;;;;;;12.97;8.43;;;16.10;99.90;;;;;;5119867;28;20837;-86
2023/04/06 09:41:26;;;;;;;11.10;8.57;;;16.60;99.90;;;;;;5111663;28;21004;-85
2023/04/06 09:44:02;;;;;;;13.40;8.80;;;16.40;99.90;;;;;;5110140;22;20549;-81
2023/04/06 09:46:32;;;;;;;11.43;7.87;;;16.50;99.90;;;;;;5080550;28;20498;-80
2023/04/06 09:49:00;;;;;;;12.23;8.53;;;16.40;99.90;;;;;;5076549;28;20471;-79
2023/04/06 09:51:30;;;;;;;14.70;9.33;;;16.80;99.90;;;;;;5069242;28;20540;-81
2023/04/06 09:54:01;;;;;;;12.40;8.57;;;16.80;99.90;;;;;;5079826;28;20471;-80
2023/04/06 09:56:32;;;;;;;11.77;9.37;;;17.30;99.90;;;;;;5079324;28;20902;-81
2023/04/06 09:59:09;;;;;;;14.13;9.27;;;17.30;99.90;;;;;;5079019;28;20479;-80
2023/04/06 10:01:38;;;;;;;15.67;8.90;;;17.90;99.90;;;;;;5080753;28;20454;-81
2023/04/06 10:04:21;;;;;;;14.53;9.80;;;19.90;99.90;;;;;;5077541;28;20478;-81
2023/04/06 10:06:52;;;;;;;13.30;10.27;;;21.00;99.90;;;;;;5081445;28;20878;-80
2023/04/06 10:09:23;;;;;;;15.03;10.03;;;21.00;99.90;;;;;;5082999;28;20447;-80
2023/04/06 10:11:52;;;;;;;11.80;9.80;;;21.40;99.90;;;;;;5074194;28;20438;-80
2023/04/06 10:14:19;;;;;;;12.97;10.43;;;22.20;99.90;;;;;;5082793;28;20475;-79
2023/04/06 10:16:50;;;;;;;12.70;10.80;;;20.50;99.90;;;;;;5080593;28;20915;-80
2023/04/06 10:19:25;;;;;;;14.07;9.67;;;20.30;99.90;;;;;;5081863;28;20798;-80
2023/04/06 10:21:55;;;;;;;12.97;10.10;;;21.10;99.90;;;;;;5070437;28;20473;-79
2023/04/06 10:24:22;;;;;;;14.00;10.57;;;21.70;99.90;;;;;;5079621;28;20465;-80
2023/04/06 10:27:00;;;;;;;13.57;11.43;;;21.50;99.90;;;;;;5078814;28;20462;-81
2023/04/06 10:29:27;;;;;;;16.73;11.67;;;21.40;99.90;;;;;;5080904;28;20438;-80
2023/04/06 10:31:55;;;;;;;14.30;11.13;;;21.50;99.90;;;;;;5087181;28;20490;-81
2023/04/06 10:34:22;;;;;;;17.10;11.00;;;21.40;99.90;;;;;;5101491;28;20531;-81
2023/04/06 10:36:49;;;;;;;16.23;11.80;;;21.80;99.90;;;;;;5100170;28;20482;-79
2023/04/06 10:39:26;;;;;;;13.50;10.43;;;21.60;99.90;;;;;;5088247;28;20533;-80
2023/04/06 10:41:53;;;;;;;14.43;10.20;;;21.10;99.90;;;;;;5081860;28;20544;-80
2023/04/06 10:44:23;;;;;;;14.63;11.43;;;20.40;99.90;;;;;;5081131;28;20480;-80
2023/04/06 10:46:54;;;;;;;11.93;10.00;;;20.10;99.90;;;;;;5080337;28;20450;-79
2023/04/06 10:49:21;;;;;;;14.47;11.60;;;19.50;99.90;;;;;;5101648;28;20444;-79
2023/04/06 10:51:54;;;;;;;13.40;11.10;;;19.90;99.90;;;;;;5098922;28;20456;-80
2023/04/06 10:54:24;;;;;;;11.87;9.83;;;19.80;99.90;;;;;;5095805;28;20472;-80
2023/04/06 10:56:51;;;;;;;14.20;11.10;;;19.50;99.90;;;;;;5095294;28;20586;-80
2023/04/06 10:59:22;;;;;;;14.57;9.77;;;19.70;99.90;;;;;;5057184;28;20604;-80
2023/04/06 11:01:49;;;;;;;14.40;12.17;;;20.80;99.90;;;;;;5075036;28;20459;-79
2023/04/06 11:04:21;;;;;;;14.47;11.60;;;21.30;99.90;;;;;;5078288;28;20477;-79
2023/04/06 11:06:49;;;;;;;17.20;12.30;;;21.10;99.90;;;;;;5085352;28;20453;-79
2023/04/06 11:09:26;;;;;;;16.47;13.10;;;21.40;99.90;;;;;;5100790;28;20452;-80
2023/04/06 11:11:54;;;;;;;16.03;13.40;;;21.70;99.90;;;;;;5097762;28;20438;-81
2023/04/06 11:14:22;;;;;;;15.60;12.87;;;21.50;99.90;;;;;;5086904;28;20459;-81
2023/04/06 11:16:50;;;;;;;15.60;13.00;;;21.30;99.90;;;;;;5087769;28;20474;-80
2023/04/06 11:19:17;;;;;;;16.27;12.87;;;21.70;99.90;;;;;;5089167;28;20477;-81
2023/04/06 11:21:47;;;;;;;15.97;13.57;;;22.20;99.90;;;;;;5106398;28;20445;-81
2023/04/06 11:24:16;;;;;;;14.67;12.20;;;22.80;99.90;;;;;;5100659;28;21057;-80
2023/04/06 11:26:45;;;;;;;18.20;12.90;;;23.30;99.90;;;;;;5079898;28;20487;-81
2023/04/06 11:29:13;;;;;;;15.83;12.90;;;24.10;99.90;;;;;;5080400;28;20870;-80
2023/04/06 11:31:47;;;;;;;16.90;14.33;;;25.00;99.90;;;;;;5085858;28;20520;-81
2023/04/06 11:34:16;;;;;;;17.13;15.07;;;24.60;99.90;;;;;;5080402;28;20510;-80
2023/04/06 11:36:45;;;;;;;22.20;18.33;;;24.30;99.90;;;;;;5100324;28;20489;-81
2023/04/06 11:39:13;;;;;;;16.00;14.20;;;22.90;99.90;;;;;;5099576;28;20486;-80
2023/04/06 11:41:40;;;;;;;19.10;15.00;;;22.70;99.90;;;;;;5079639;28;20518;-79
2023/04/06 11:44:07;;;;;;;16.90;13.80;;;22.60;99.90;;;;;;5079113;28;20475;-80
2023/04/06 11:46:34;;;;;;;19.70;14.97;;;22.20;99.90;;;;;;5097311;28;20507;-80
2023/04/06 11:49:03;;;;;;;19.73;14.80;;;21.50;99.90;;;;;;5055833;28;20439;-80
2023/04/06 11:51:30;;;;;;;17.70;13.97;;;20.40;99.90;;;;;;5071940;28;20482;-79
2023/04/06 11:53:57;;;;;;;18.97;13.70;;;20.00;99.90;;;;;;5072634;28;20498;-80
2023/04/06 11:56:28;;;;;;;20.83;14.23;;;19.90;99.90;;;;;;5091254;28;20485;-80
2023/04/06 11:58:56;;;;;;;21.13;13.63;;;20.60;99.90;;;;;;5080788;28;20477;-80
2023/04/06 12:01:24;;;;;;;21.70;13.53;;;20.50;99.90;;;;;;5089115;28;20978;-79
2023/04/06 12:03:52;;;;;;;15.60;11.00;;;20.70;99.90;;;;;;5096703;28;20470;-80
2023/04/06 12:06:20;;;;;;;12.33;9.80;;;20.20;99.90;;;;;;5082583;28;20453;-80
2023/04/06 12:08:47;;;;;;;14.27;11.10;;;20.10;99.90;;;;;;5077348;28;20534;-80
2023/04/06 12:11:14;;;;;;;14.53;10.53;;;20.50;99.90;;;;;;5062474;28;20480;-80
2023/04/06 12:13:41;;;;;;;16.27;11.33;;;20.80;99.90;;;;;;5068128;28;20553;-80
2023/04/06 12:16:08;;;;;;;15.40;10.80;;;20.90;99.90;;;;;;5078582;28;20479;-81
2023/04/06 12:18:35;;;;;;;14.57;11.27;;;20.80;99.90;;;;;;5085495;28;20484;-79
2023/04/06 12:21:02;;;;;;;14.07;10.30;;;20.80;99.90;;;;;;5096546;28;20461;-80
2023/04/06 12:23:30;;;;;;;15.47;10.97;;;20.90;99.90;;;;;;5089423;28;20496;-80
2023/04/06 12:25:57;;;;;;;15.53;10.83;;;21.00;99.90;;;;;;5077862;28;20509;-81
2023/04/06 12:28:26;;;;;;;15.23;10.43;;;19.90;99.90;;;;;;5077798;28;20479;-81
2023/04/06 12:30:54;;;;;;;12.93;10.47;;;20.50;99.90;;;;;;5089423;28;20458;-80
2023/04/06 12:33:21;;;;;;;12.63;9.30;;;20.60;99.90;;;;;;5097781;28;20446;-80
2023/04/06 12:35:48;;;;;;;14.40;10.13;;;20.60;99.90;;;;;;5097395;28;20452;-80
2023/04/06 12:38:15;;;;;;;14.40;10.27;;;20.80;99.90;;;;;;5101107;28;20907;-81
2023/04/06 12:40:44;;;;;;;15.40;11.40;;;20.50;99.90;;;;;;5086088;28;20466;-81
2023/04/06 12:43:12;;;;;;;13.03;9.63;;;20.90;99.90;;;;;;5082267;28;20556;-81
2023/04/06 12:45:39;;;;;;;13.50;10.43;;;20.40;99.90;;;;;;5096215;28;20442;-81
2023/04/06 12:48:07;;;;;;;17.80;11.47;;;20.30;99.90;;;;;;5081326;28;20501;-80